createdAt,value
2018-08-18T00:00:23.654Z,3.30
2018-08-18T00:02:52.649Z,2.87
2018-08-18T00:05:21.602Z,3.40
2018-08-18T00:07:50.472Z,3.40
2018-08-18T00:10:21.019Z,3.40
2018-08-18T00:12:49.918Z,3.23
2018-08-18T00:15:19.040Z,3.10
2018-08-18T00:17:47.927Z,3.50
2018-08-18T00:20:19.997Z,3.20
2018-08-18T00:22:49.044Z,3.30
2018-08-18T00:25:17.910Z,3.20
2018-08-18T00:27:46.837Z,3.10
2018-08-18T00:30:21.065Z,4.10
2018-08-18T00:32:49.909Z,3.83
2018-08-18T00:35:18.802Z,4.17
2018-08-18T00:37:47.678Z,4.40
2018-08-18T00:40:16.867Z,4.40
2018-08-18T00:42:45.621Z,4.17
2018-08-18T00:45:14.886Z,4.47
2018-08-18T00:47:43.870Z,4.10
2018-08-18T00:50:17.208Z,4.20
2018-08-18T00:52:46.220Z,4.30
2018-08-18T00:55:15.232Z,4.40
2018-08-18T00:57:44.192Z,4.70
2018-08-18T01:00:13.133Z,4.97
2018-08-18T01:02:41.981Z,5.33
2018-08-18T01:05:10.856Z,5.40
2018-08-18T01:07:39.773Z,5.00
2018-08-18T01:10:08.607Z,5.17
2018-08-18T01:12:38.167Z,5.20
2018-08-18T01:15:09.000Z,5.53
2018-08-18T01:17:37.937Z,5.67
2018-08-18T01:20:07.433Z,5.50
2018-08-18T01:22:36.398Z,5.57
2018-08-18T01:25:06.306Z,5.63
2018-08-18T01:27:45.984Z,5.17
2018-08-18T01:30:14.916Z,6.30
2018-08-18T01:32:43.838Z,5.93
2018-08-18T01:35:12.915Z,5.77
2018-08-18T01:37:41.798Z,5.57
2018-08-18T01:40:10.754Z,5.80
2018-08-18T01:42:39.874Z,6.03
2018-08-18T01:45:08.697Z,5.80
2018-08-18T01:47:37.620Z,5.80
2018-08-18T01:50:11.818Z,5.30
2018-08-18T01:57:34.526Z,5.97
2018-08-18T02:00:11.760Z,5.60
2018-08-18T02:02:40.354Z,6.00
2018-08-18T02:05:16.736Z,6.40
2018-08-18T02:07:45.456Z,6.00
2018-08-18T02:10:14.210Z,6.37
2018-08-18T02:12:54.385Z,6.30
2018-08-18T02:15:22.969Z,6.03
2018-08-18T02:17:51.483Z,6.20
2018-08-18T02:20:21.173Z,5.80
2018-08-18T02:22:49.788Z,6.20
2018-08-18T02:25:18.316Z,5.80
2018-08-18T02:27:47.261Z,6.60
2018-08-18T02:30:17.386Z,6.17
2018-08-18T02:32:46.480Z,6.20
2018-08-18T02:35:15.027Z,5.23
2018-08-18T02:37:43.661Z,4.47
2018-08-18T02:40:14.812Z,6.37
2018-08-18T02:42:43.450Z,5.87
2018-08-18T02:45:12.869Z,5.93
2018-08-18T02:47:41.792Z,6.03
2018-08-18T02:50:11.596Z,5.60
2018-08-18T02:52:40.082Z,5.40
2018-08-18T02:55:10.474Z,5.70
2018-08-18T02:57:41.185Z,5.63
2018-08-18T03:00:26.801Z,6.27
2018-08-18T03:02:55.299Z,6.17
2018-08-18T03:05:23.895Z,5.80
2018-08-18T03:07:53.225Z,6.13
2018-08-18T03:10:22.687Z,5.90
2018-08-18T03:12:52.399Z,6.80
2018-08-18T03:15:59.492Z,6.23
2018-08-18T03:18:48.992Z,6.30
2018-08-18T03:21:18.239Z,6.20
2018-08-18T03:23:59.124Z,5.90
2018-08-18T03:26:37.051Z,6.60
2018-08-18T03:29:05.995Z,6.17
2018-08-18T03:31:34.929Z,5.90
2018-08-18T03:34:03.899Z,5.90
2018-08-18T03:36:36.934Z,5.43
2018-08-18T03:39:09.095Z,6.00
2018-08-18T03:41:37.901Z,5.70
2018-08-18T03:44:06.908Z,5.90
2018-08-18T03:46:35.843Z,5.63
2018-08-18T03:49:04.705Z,6.07
2018-08-18T03:51:38.812Z,6.40
2018-08-18T03:54:07.657Z,5.57
2018-08-18T03:56:36.867Z,5.80
2018-08-18T03:59:05.854Z,6.10
2018-08-18T04:01:59.142Z,6.10
2018-08-18T04:04:29.582Z,5.53
2018-08-18T04:06:59.668Z,5.77
2018-08-18T04:09:30.733Z,5.53
2018-08-18T04:12:01.097Z,5.50
2018-08-18T04:14:34.832Z,5.10
2018-08-18T04:17:03.690Z,5.70
2018-08-18T04:19:32.552Z,5.57
2018-08-18T04:22:01.582Z,6.23
2018-08-18T04:24:35.685Z,5.57
2018-08-18T04:27:04.619Z,5.30
2018-08-18T04:29:33.512Z,5.57
2018-08-18T04:32:02.640Z,5.17
2018-08-18T04:34:31.436Z,5.00
2018-08-18T04:37:02.072Z,5.60
2018-08-18T04:39:30.915Z,4.90
2018-08-18T04:41:59.793Z,4.80
2018-08-18T04:44:29.176Z,5.40
2018-08-18T04:46:57.885Z,5.27
2018-08-18T04:49:26.750Z,5.30
2018-08-18T04:51:55.612Z,5.30
2018-08-18T04:54:24.353Z,5.77
2018-08-18T04:56:53.978Z,5.50
2018-08-18T04:59:23.986Z,5.40
2018-08-18T05:01:52.938Z,5.60
2018-08-18T05:04:21.812Z,5.60
2018-08-18T05:06:50.706Z,6.00
2018-08-18T05:09:19.581Z,5.90
2018-08-18T05:11:48.758Z,5.80
2018-08-18T05:14:17.545Z,6.27
2018-08-18T05:16:46.429Z,6.27
2018-08-18T05:19:15.261Z,6.20
2018-08-18T05:21:44.289Z,6.03
2018-08-18T05:24:23.253Z,6.27
2018-08-18T05:26:53.485Z,6.20
2018-08-18T05:29:22.933Z,6.00
2018-08-18T05:31:52.160Z,6.50
2018-08-18T05:34:21.226Z,6.67
2018-08-18T05:36:50.055Z,6.10
2018-08-18T05:39:18.841Z,5.53
2018-08-18T05:41:47.804Z,5.90
2018-08-18T05:44:16.700Z,6.30
2018-08-18T05:46:45.585Z,6.13
2018-08-18T05:49:15.163Z,6.20
2018-08-18T05:51:46.567Z,5.90
2018-08-18T05:54:17.329Z,6.27
2018-08-18T05:56:46.837Z,5.97
2018-08-18T05:59:15.709Z,6.03
2018-08-18T06:01:44.945Z,5.80
2018-08-18T06:04:15.498Z,5.93
2018-08-18T06:06:45.207Z,6.50
2018-08-18T06:09:15.431Z,6.07
2018-08-18T06:11:44.589Z,5.67
2018-08-18T06:14:14.113Z,6.00
2018-08-18T06:16:43.449Z,5.90
2018-08-18T06:19:12.439Z,5.10
2018-08-18T06:21:41.551Z,6.25
2018-08-18T06:24:10.933Z,4.87
2018-08-18T06:26:39.782Z,5.92
2018-08-18T06:29:08.719Z,5.10
2018-08-18T06:31:52.827Z,5.60
2018-08-18T06:34:21.813Z,5.70
2018-08-18T06:36:50.728Z,5.35
2018-08-18T06:39:19.590Z,6.10
2018-08-18T06:41:48.615Z,5.50
2018-08-18T06:44:18.603Z,5.85
2018-08-18T06:46:49.098Z,7.10
2018-08-18T06:49:18.026Z,6.30
2018-08-18T06:51:47.443Z,6.27
2018-08-18T06:54:16.411Z,7.33
2018-08-18T06:56:45.189Z,7.00
2018-08-18T06:59:14.140Z,6.43
2018-08-18T07:01:43.050Z,7.07
2018-08-18T07:04:19.108Z,7.20
2018-08-18T07:06:47.941Z,6.73
2018-08-18T07:09:16.711Z,7.63
2018-08-18T07:11:45.598Z,7.43
2018-08-18T07:14:14.537Z,6.90
2018-08-18T07:16:43.429Z,6.80
2018-08-18T07:19:12.515Z,7.00
2018-08-18T07:21:42.246Z,6.90
2018-08-18T07:24:12.031Z,7.37
2018-08-18T07:26:41.256Z,6.70
2018-08-18T07:29:10.401Z,7.00
2018-08-18T07:31:39.050Z,6.50
2018-08-18T07:34:07.954Z,7.43
2018-08-18T07:36:36.918Z,7.90
2018-08-18T07:39:07.764Z,7.07
2018-08-18T07:41:36.478Z,7.03
2018-08-18T07:44:05.457Z,7.95
2018-08-18T07:46:34.270Z,6.90
2018-08-18T07:49:03.239Z,6.60
2018-08-18T07:51:32.184Z,7.00
2018-08-18T07:54:01.076Z,6.87
2018-08-18T07:56:30.026Z,6.67
2018-08-18T07:58:58.814Z,6.77
2018-08-18T08:01:27.705Z,7.27
2018-08-18T08:03:56.487Z,6.67
2018-08-18T08:06:25.348Z,6.43
2018-08-18T08:08:54.219Z,7.57
2018-08-18T08:11:24.903Z,6.73
2018-08-18T08:13:53.729Z,8.38
2018-08-18T08:16:22.559Z,6.87
2018-08-18T08:18:51.448Z,6.70
2018-08-18T08:21:20.762Z,7.10
2018-08-18T08:23:49.679Z,6.10
2018-08-18T08:26:18.528Z,6.50
2018-08-18T08:28:47.354Z,6.90
2018-08-18T08:31:16.158Z,6.50
2018-08-18T08:33:45.052Z,6.80
2018-08-18T08:36:16.044Z,6.07
2018-08-18T08:39:00.149Z,6.50
2018-08-18T08:41:30.832Z,6.00
2018-08-18T08:43:59.952Z,6.50
2018-08-18T08:46:28.912Z,6.47
2018-08-18T08:49:00.067Z,6.23
2018-08-18T08:51:28.869Z,6.10
2018-08-18T08:53:59.270Z,5.70
2018-08-18T08:56:34.220Z,5.40
2018-08-18T08:59:03.889Z,6.63
2018-08-18T09:01:32.825Z,5.47
2018-08-18T09:04:02.069Z,5.27
2018-08-18T09:06:31.100Z,4.63
2018-08-18T09:09:00.759Z,4.80
2018-08-18T09:11:30.303Z,4.90
2018-08-18T09:14:06.444Z,5.45
2018-08-18T09:16:35.286Z,4.63
2018-08-18T09:19:04.150Z,5.00
2018-08-18T09:21:40.338Z,5.50
2018-08-18T09:24:09.462Z,4.80
2018-08-18T09:26:42.417Z,5.08
2018-08-18T09:29:12.234Z,4.60
2018-08-18T09:31:41.819Z,4.25
2018-08-18T09:34:10.923Z,4.72
2018-08-18T09:36:40.297Z,4.70
2018-08-18T09:39:32.840Z,4.92
2018-08-18T09:42:03.209Z,4.83
2018-08-18T09:44:34.220Z,4.83
2018-08-18T09:47:02.708Z,5.25
2018-08-18T09:49:31.950Z,4.85
2018-08-18T09:52:01.428Z,4.62
2018-08-18T09:54:30.064Z,4.58
2018-08-18T09:56:59.270Z,4.65
2018-08-18T09:59:28.693Z,5.03
2018-08-18T10:01:57.302Z,4.95
2018-08-18T10:04:25.976Z,4.70
2018-08-18T10:06:55.579Z,4.78
2018-08-18T10:09:24.690Z,4.70
2018-08-18T10:11:53.658Z,4.50
2018-08-18T10:14:22.370Z,4.35
2018-08-18T10:16:50.944Z,4.45
2018-08-18T10:19:19.458Z,3.70
2018-08-18T10:21:48.329Z,3.70
2018-08-18T10:24:16.964Z,4.37
2018-08-18T10:27:06.617Z,4.25
2018-08-18T10:29:35.237Z,3.75
2018-08-18T10:32:03.941Z,4.47
2018-08-18T10:34:33.990Z,3.87
2018-08-18T10:37:04.916Z,3.98
2018-08-18T10:39:34.245Z,3.92
2018-08-18T10:42:06.141Z,3.95
2018-08-18T10:44:35.298Z,4.08
2018-08-18T10:47:15.214Z,4.17
2018-08-18T10:49:54.931Z,3.83
2018-08-18T10:52:35.826Z,3.50
2018-08-18T10:55:06.582Z,4.12
2018-08-18T10:57:47.575Z,3.77
2018-08-18T11:00:18.656Z,3.60
2018-08-18T11:02:49.044Z,3.55
2018-08-18T11:05:18.837Z,3.72
2018-08-18T11:07:55.701Z,3.40
2018-08-18T11:10:28.299Z,3.55
2018-08-18T11:12:57.531Z,3.77
2018-08-18T11:15:26.733Z,3.22
2018-08-18T11:17:55.969Z,3.27
2018-08-18T11:20:26.198Z,3.47
2018-08-18T11:23:04.334Z,3.27
2018-08-18T11:25:37.307Z,3.40
2018-08-18T11:28:07.095Z,3.25
2018-08-18T11:30:36.000Z,3.02
2018-08-18T11:33:04.952Z,3.02
2018-08-18T11:35:34.801Z,3.30
2018-08-18T11:38:12.261Z,3.50
2018-08-18T11:40:41.145Z,3.20
2018-08-18T11:43:12.470Z,2.90
2018-08-18T11:45:42.262Z,3.33
2018-08-18T11:48:13.513Z,3.27
2018-08-18T11:50:42.734Z,3.05
2018-08-18T11:53:11.621Z,2.77
2018-08-18T11:55:40.781Z,2.95
2018-08-18T11:58:12.163Z,3.77
2018-08-18T12:00:43.469Z,2.98
2018-08-18T12:03:14.436Z,2.95
2018-08-18T12:05:49.661Z,2.80
2018-08-18T12:08:19.899Z,3.10
2018-08-18T12:10:50.003Z,2.70
2018-08-18T12:13:19.158Z,2.92
2018-08-18T12:15:59.873Z,2.72
2018-08-18T12:18:31.192Z,3.12
2018-08-18T12:21:02.334Z,2.80
2018-08-18T12:23:31.894Z,2.90
2018-08-18T12:26:05.923Z,3.12
2018-08-18T12:28:42.946Z,2.70
2018-08-18T12:31:15.636Z,2.70
2018-08-18T12:33:44.619Z,2.83
2018-08-18T12:36:13.460Z,2.90
2018-08-18T12:38:43.806Z,2.85
2018-08-18T12:41:12.880Z,2.90
2018-08-18T12:43:44.108Z,3.00
2018-08-18T12:46:14.692Z,2.73
2018-08-18T12:48:44.913Z,2.62
2018-08-18T12:51:15.008Z,2.95
2018-08-18T12:53:52.013Z,3.00
2018-08-18T12:56:24.010Z,2.72
2018-08-18T12:58:53.261Z,2.80
2018-08-18T13:01:38.679Z,2.70
2018-08-18T13:04:09.948Z,2.80
2018-08-18T13:06:43.268Z,2.80
2018-08-18T13:09:13.829Z,3.15
2018-08-18T13:11:43.996Z,3.10
2018-08-18T13:14:15.529Z,2.97
2018-08-18T13:16:44.481Z,2.98
2018-08-18T13:19:15.930Z,2.70
2018-08-18T13:21:45.023Z,2.83
2018-08-18T13:24:14.018Z,3.00
2018-08-18T13:26:42.903Z,3.20
2018-08-18T13:29:12.266Z,3.02
2018-08-18T13:31:42.206Z,2.90
2018-08-18T13:34:12.849Z,3.20
2018-08-18T13:36:43.114Z,3.17
2018-08-18T13:39:15.836Z,2.87
2018-08-18T13:41:45.778Z,3.10
2018-08-18T13:44:23.118Z,2.55
2018-08-18T13:46:52.666Z,3.58
2018-08-18T13:49:23.315Z,3.58
2018-08-18T13:51:52.265Z,3.52
2018-08-18T13:54:21.072Z,3.50
2018-08-18T13:56:49.894Z,2.83
2018-08-18T13:59:52.739Z,4.47
2018-08-18T14:02:21.579Z,4.37
2018-08-18T14:04:50.715Z,3.47
2018-08-18T14:07:19.613Z,4.78
2018-08-18T14:09:53.847Z,3.85
2018-08-18T14:12:23.311Z,3.70
2018-08-18T14:14:52.114Z,3.45
2018-08-18T14:17:22.461Z,3.10
2018-08-18T14:19:52.057Z,3.42
2018-08-18T14:22:22.474Z,3.10
2018-08-18T14:24:51.423Z,3.42
2018-08-18T14:27:22.992Z,4.80
2018-08-18T14:29:51.807Z,4.62
2018-08-18T14:32:28.964Z,3.95
2018-08-18T14:35:02.545Z,3.50
2018-08-18T14:37:31.402Z,3.62
2018-08-18T14:40:00.472Z,3.47
2018-08-18T14:42:29.455Z,3.87
2018-08-18T14:44:59.461Z,3.72
2018-08-18T14:47:28.403Z,3.35
2018-08-18T14:50:12.747Z,3.67
2018-08-18T14:52:42.821Z,3.60
2018-08-18T14:55:11.919Z,3.90
2018-08-18T14:57:48.735Z,3.30
2018-08-18T15:00:17.593Z,3.70
2018-08-18T15:02:46.696Z,3.83
2018-08-18T15:05:15.795Z,3.70
2018-08-18T15:07:50.152Z,3.33
2018-08-18T15:10:43.430Z,3.33
2018-08-18T15:13:12.515Z,3.62
2018-08-18T15:15:41.619Z,3.35
2018-08-18T15:18:12.648Z,3.70
2018-08-18T15:20:42.124Z,3.58
2018-08-18T15:23:12.072Z,3.42
2018-08-18T15:25:41.964Z,3.85
2018-08-18T15:28:13.245Z,3.65
2018-08-18T15:30:43.555Z,3.52
2018-08-18T15:33:16.243Z,3.72
2018-08-18T15:35:45.395Z,3.70
2018-08-18T15:38:14.404Z,3.10
2018-08-18T15:40:43.544Z,3.65
2018-08-18T15:43:12.413Z,3.47
2018-08-18T15:45:58.784Z,3.45
2018-08-18T15:48:29.152Z,3.58
2018-08-18T15:50:58.546Z,3.45
2018-08-18T15:54:02.912Z,3.60
2018-08-18T15:56:34.154Z,3.52
2018-08-18T15:59:03.958Z,3.40
2018-08-18T16:01:34.708Z,3.62
2018-08-18T16:04:05.130Z,3.50
2018-08-18T16:06:34.588Z,3.10
2018-08-18T16:09:05.367Z,3.50
2018-08-18T16:11:35.177Z,3.60
2018-08-18T16:14:04.286Z,4.00
2018-08-18T16:16:37.929Z,3.70
2018-08-18T16:19:12.444Z,3.27
2018-08-18T16:21:42.561Z,4.30
2018-08-18T16:24:20.516Z,3.72
2018-08-18T16:26:49.938Z,4.10
2018-08-18T16:29:18.847Z,3.50
2018-08-18T16:31:47.635Z,3.05
2018-08-18T16:34:16.703Z,3.30
2018-08-18T16:36:46.353Z,3.50
2018-08-18T16:39:15.333Z,3.10
2018-08-18T16:41:44.130Z,3.60
2018-08-18T16:44:13.077Z,3.10
2018-08-18T16:46:42.008Z,3.37
2018-08-18T16:49:11.061Z,3.60
2018-08-18T16:51:40.467Z,3.20
2018-08-18T16:54:20.635Z,3.50
2018-08-18T16:56:50.217Z,2.87
2018-08-18T16:59:19.243Z,3.10
2018-08-18T17:01:48.148Z,3.70
2018-08-18T17:04:34.515Z,3.52
2018-08-18T17:07:06.342Z,3.20
2018-08-18T17:09:41.901Z,3.40
2018-08-18T17:12:17.489Z,3.65
2018-08-18T17:14:46.446Z,3.80
2018-08-18T17:17:15.775Z,3.47
2018-08-18T17:19:44.981Z,3.50
2018-08-18T17:22:16.001Z,4.00
2018-08-18T17:24:45.003Z,3.70
2018-08-18T17:27:13.809Z,4.10
2018-08-18T17:29:44.391Z,3.80
2018-08-18T17:32:13.327Z,4.40
2018-08-18T17:34:42.144Z,4.30
2018-08-18T17:37:11.015Z,5.00
2018-08-18T17:39:39.997Z,4.50
2018-08-18T17:42:08.908Z,4.63
2018-08-18T17:44:37.749Z,4.40
2018-08-18T17:47:08.269Z,4.60
2018-08-18T17:49:44.341Z,4.10
2018-08-18T17:52:13.191Z,4.00
2018-08-18T17:54:42.363Z,4.17
2018-08-18T17:57:11.275Z,4.27
2018-08-18T17:59:40.177Z,4.37
2018-08-18T18:02:13.701Z,4.30
2018-08-18T18:04:42.545Z,4.53
2018-08-18T18:07:12.224Z,4.77
2018-08-18T18:09:41.131Z,3.90
2018-08-18T18:12:30.766Z,4.10
2018-08-18T18:14:59.588Z,4.23
2018-08-18T18:17:28.816Z,4.17
2018-08-18T18:20:00.032Z,4.40
2018-08-18T18:22:39.997Z,4.50
2018-08-18T18:25:08.855Z,4.20
2018-08-18T18:27:37.824Z,4.62
2018-08-18T18:30:06.817Z,4.40
2018-08-18T18:32:35.677Z,4.30
2018-08-18T18:35:04.675Z,4.00
2018-08-18T18:37:33.501Z,4.57
2018-08-18T18:40:06.059Z,4.10
2018-08-18T18:42:34.951Z,4.03
2018-08-18T18:45:03.995Z,3.95
2018-08-18T18:47:33.570Z,4.17
2018-08-18T18:50:02.441Z,3.70
2018-08-18T18:52:31.829Z,3.65
2018-08-18T18:55:00.864Z,3.40
2018-08-18T18:57:29.882Z,3.72
2018-08-18T19:00:00.666Z,4.07
2018-08-18T19:02:40.699Z,3.83
2018-08-18T19:05:19.606Z,4.27
2018-08-18T19:07:53.687Z,3.70
2018-08-18T19:10:23.751Z,4.27
2018-08-18T19:12:55.475Z,4.10
2018-08-18T19:15:24.615Z,4.55
2018-08-18T19:17:53.546Z,4.70
2018-08-18T19:20:27.214Z,4.60
2018-08-18T19:23:05.494Z,4.60
2018-08-18T19:25:35.486Z,3.67
2018-08-18T19:28:04.436Z,4.13
2018-08-18T19:30:33.936Z,4.60
2018-08-18T19:33:03.525Z,4.50
2018-08-18T19:35:40.770Z,4.53
2018-08-18T19:38:09.769Z,4.40
2018-08-18T19:40:40.123Z,3.90
2018-08-18T19:43:15.422Z,4.47
2018-08-18T19:45:44.459Z,4.60
2018-08-18T19:48:15.514Z,4.13
2018-08-18T19:50:52.800Z,4.60
2018-08-18T19:53:24.678Z,4.33
2018-08-18T19:55:54.709Z,4.27
2018-08-18T19:58:24.356Z,3.40
2018-08-18T20:00:53.981Z,4.20
2018-08-18T20:03:23.841Z,4.43
2018-08-18T20:05:52.948Z,4.47
2018-08-18T20:08:23.140Z,4.43
2018-08-18T20:10:56.867Z,4.70
2018-08-18T20:13:27.799Z,4.73
2018-08-18T20:15:58.247Z,4.53
2018-08-18T20:18:27.245Z,4.90
2018-08-18T20:20:57.853Z,4.97
2018-08-18T20:23:26.688Z,5.00
2018-08-18T20:25:56.047Z,4.40
2018-08-18T20:28:25.267Z,5.37
2018-08-18T20:30:54.152Z,5.30
2018-08-18T20:33:23.021Z,5.10
2018-08-18T20:35:52.336Z,4.10
2018-08-18T20:38:21.171Z,4.40
2018-08-18T20:40:50.112Z,4.40
2018-08-18T20:43:19.556Z,4.50
2018-08-18T20:45:49.535Z,4.67
2018-08-18T20:48:21.648Z,4.67
2018-08-18T20:50:50.853Z,4.53
2018-08-18T20:53:19.854Z,4.50
2018-08-18T20:55:54.973Z,4.80
2018-08-18T20:58:24.222Z,4.83
2018-08-18T21:00:53.243Z,4.67
2018-08-18T21:03:22.780Z,4.50
2018-08-18T21:05:51.810Z,4.67
2018-08-18T21:08:21.142Z,4.97
2018-08-18T21:10:50.458Z,5.67
2018-08-18T21:13:19.369Z,6.80
2018-08-18T21:15:48.317Z,6.83
2018-08-18T21:18:18.543Z,7.13
2018-08-18T21:20:47.959Z,5.80
2018-08-18T21:23:17.251Z,6.00
2018-08-18T21:25:51.170Z,6.23
2018-08-18T21:28:21.060Z,5.57
2018-08-18T21:30:50.061Z,6.67
2018-08-18T21:33:19.133Z,6.00
2018-08-18T21:35:48.598Z,6.20
2018-08-18T21:38:17.586Z,6.07
2018-08-18T21:40:46.498Z,5.93
2018-08-18T21:43:26.577Z,6.47
2018-08-18T21:45:55.657Z,5.87
2018-08-18T21:48:36.126Z,6.00
2018-08-18T21:51:05.147Z,5.30
2018-08-18T21:53:34.021Z,5.63
2018-08-18T21:56:03.434Z,4.90
2018-08-18T21:58:32.589Z,4.93
2018-08-18T22:01:06.718Z,5.20
2018-08-18T22:03:35.788Z,5.00
2018-08-18T22:06:04.613Z,5.30
2018-08-18T22:08:33.570Z,5.30
2018-08-18T22:11:02.715Z,4.93
2018-08-18T22:13:40.882Z,4.93
2018-08-18T22:16:10.512Z,4.73
2018-08-18T22:18:40.557Z,5.50
2018-08-18T22:21:13.725Z,5.23
2018-08-18T22:23:42.677Z,6.10
2018-08-18T22:26:20.634Z,5.10
2018-08-18T22:28:55.695Z,5.17
2018-08-18T22:31:24.619Z,5.40
2018-08-18T22:33:55.735Z,4.67
2018-08-18T22:36:26.121Z,4.93
2018-08-18T22:38:55.507Z,4.73
2018-08-18T22:41:24.723Z,5.00
2018-08-18T22:43:54.020Z,4.97
2018-08-18T22:46:23.338Z,4.83
2018-08-18T22:48:52.393Z,4.97
2018-08-18T22:51:21.239Z,4.70
2018-08-18T22:53:51.231Z,4.83
2018-08-18T22:56:20.158Z,4.47
2018-08-18T22:58:54.655Z,3.83
2018-08-18T23:01:24.123Z,3.93
2018-08-18T23:03:53.184Z,3.73
2018-08-18T23:06:22.108Z,4.03
2018-08-18T23:08:50.961Z,4.60
2018-08-18T23:11:19.833Z,5.07
2018-08-18T23:13:48.776Z,4.20
2018-08-18T23:16:17.571Z,4.20
2018-08-18T23:18:46.455Z,3.83
2018-08-18T23:21:25.575Z,4.10
2018-08-18T23:23:54.374Z,4.30
2018-08-18T23:26:23.295Z,5.03
2018-08-18T23:28:52.357Z,4.93
2018-08-18T23:31:21.115Z,4.57
2018-08-18T23:33:50.085Z,4.30
2018-08-18T23:36:19.009Z,4.80
2018-08-18T23:38:54.890Z,5.03
2018-08-18T23:41:23.909Z,4.70
2018-08-18T23:43:53.053Z,5.00
2018-08-18T23:46:21.905Z,4.23
2018-08-18T23:48:50.756Z,4.20
2018-08-18T23:51:23.323Z,4.70
2018-08-18T23:53:52.394Z,4.67
2018-08-18T23:56:21.372Z,4.67
2018-08-18T23:58:51.108Z,4.40
